Time;durP1;ratioP1;P1;durP2;ratioP2;P2;SDS_P1;SDS_P2;PMS_P1;PMS_P2;Temp;Humidity;BMP_temperature;BMP_pressure;BME280_temperature;BME280_humidity;BME280_pressure;Samples;Min_cycle;Max_cycle;Signal;HPM_P1;HPM_P2
2022/02/03 00:00:25;;;;;;;39.50;22.10;;;9.90;99.90;;;;;;5113834;28;20527;-72
2022/02/03 00:03:05;;;;;;;39.70;23.40;;;9.80;99.90;;;;;;5114381;28;20447;-73
2022/02/03 00:05:48;;;;;;;36.73;22.73;;;9.80;99.90;;;;;;5114454;28;20509;-73
2022/02/03 00:08:30;;;;;;;41.13;25.20;;;9.80;99.90;;;;;;5114278;28;20427;-73
2022/02/03 00:11:26;;;;;;;34.77;22.10;;;9.80;99.90;;;;;;5114143;28;20467;-72
2022/02/03 00:22:18;;;;;;;35.67;22.07;;;9.80;99.90;;;;;;5114614;28;20554;-72
2022/02/03 00:24:54;;;;;;;39.47;24.20;;;9.90;99.90;;;;;;5114131;28;20435;-72
2022/02/03 00:27:38;;;;;;;34.47;22.57;;;9.90;99.90;;;;;;5113743;28;20905;-73
2022/02/03 00:30:10;;;;;;;37.47;22.47;;;9.90;99.90;;;;;;5113952;28;20518;-73
2022/02/03 00:32:48;;;;;;;35.80;23.77;;;10.00;99.90;;;;;;5113800;28;20466;-73
2022/02/03 00:35:39;;;;;;;31.83;22.70;;;10.00;99.90;;;;;;5113590;28;20904;-73
2022/02/03 00:49:14;;;;;;;30.93;21.07;;;9.80;99.90;;;;;;5113809;28;20448;-73
2022/02/03 00:51:46;;;;;;;32.37;22.43;;;9.80;99.90;;;;;;5114168;28;21034;-72
2022/02/03 00:54:14;;;;;;;36.40;21.40;;;9.80;99.90;;;;;;5113787;28;20480;-73
2022/02/03 00:56:48;;;;;;;35.17;21.60;;;9.80;99.90;;;;;;5113723;28;20450;-73
2022/02/03 00:59:21;;;;;;;31.10;21.00;;;9.70;99.90;;;;;;5113625;28;20470;-73
2022/02/03 01:01:50;;;;;;;33.93;23.23;;;9.70;99.90;;;;;;5113375;28;20869;-73
2022/02/03 01:04:17;;;;;;;31.73;22.70;;;9.70;99.90;;;;;;5113356;28;20439;-73
2022/02/03 01:06:50;;;;;;;33.70;24.87;;;9.70;99.90;;;;;;5113644;28;20450;-73
2022/02/03 01:09:22;;;;;;;38.60;23.00;;;9.60;99.90;;;;;;5113646;28;20427;-73
2022/02/03 01:11:56;;;;;;;35.90;24.90;;;9.70;99.90;;;;;;5115851;28;20475;-73
2022/02/03 01:14:29;;;;;;;37.57;24.93;;;9.70;99.90;;;;;;5118209;28;20434;-73
2022/02/03 01:17:13;;;;;;;39.93;24.83;;;9.70;99.90;;;;;;5117359;28;20462;-73
2022/02/03 01:34:05;;;;;;;38.00;23.90;;;9.70;99.90;;;;;;5117010;28;20394;-72
2022/02/03 01:45:04;;;;;;;35.03;23.23;;;9.70;99.90;;;;;;5117044;28;20467;-73
2022/02/03 01:47:48;;;;;;;32.27;22.50;;;9.70;99.90;;;;;;5117019;28;20430;-73
2022/02/03 01:53:20;;;;;;;30.67;20.57;;;9.70;99.90;;;;;;5073961;28;20432;-73
2022/02/03 01:55:52;;;;;;;30.23;21.40;;;9.70;99.90;;;;;;5108585;28;20439;-73
2022/02/03 01:58:29;;;;;;;38.27;22.47;;;9.70;99.90;;;;;;5116788;28;20426;-73
2022/02/03 02:00:59;;;;;;;30.90;20.60;;;9.70;99.90;;;;;;5116349;28;20996;-73
2022/02/03 02:03:38;;;;;;;28.07;19.30;;;9.80;99.90;;;;;;5117688;28;20542;-73
2022/02/03 02:06:40;;;;;;;29.83;18.93;;;9.70;99.90;;;;;;5116636;28;20450;-72
2022/02/03 02:09:11;;;;;;;28.83;19.23;;;9.70;99.90;;;;;;5083077;28;20442;-72
2022/02/03 02:11:58;;;;;;;34.23;21.93;;;9.60;99.90;;;;;;5116488;28;20828;-73
2022/02/03 02:37:17;;;;;;;29.43;21.30;;;9.60;99.90;;;;;;5115827;28;20889;-72
2022/02/03 02:40:29;;;;;;;31.80;21.07;;;9.60;99.90;;;;;;5116001;28;20471;-72
2022/02/03 02:43:03;;;;;;;32.20;21.83;;;9.60;99.90;;;;;;5115410;28;20976;-72
2022/02/03 02:45:41;;;;;;;36.53;23.30;;;9.60;99.90;;;;;;5115891;28;20433;-72
2022/02/03 02:48:19;;;;;;;33.93;22.40;;;9.60;99.90;;;;;;5115819;27;20427;-73
2022/02/03 02:50:56;;;;;;;30.30;21.53;;;9.60;99.90;;;;;;5115685;28;20459;-72
2022/02/03 02:53:36;;;;;;;35.40;21.40;;;9.60;99.90;;;;;;5115733;27;20434;-72
2022/02/03 02:56:17;;;;;;;37.80;23.70;;;9.60;99.90;;;;;;5115337;28;20898;-73
2022/02/03 02:59:11;;;;;;;37.63;23.23;;;9.50;99.90;;;;;;5115601;28;20549;-72
2022/02/03 03:02:12;;;;;;;35.77;21.77;;;9.40;99.90;;;;;;5115545;28;20459;-72
2022/02/03 03:30:05;;;;;;;19.73;14.67;;;9.20;99.90;;;;;;5115656;28;20453;-73
2022/02/03 03:32:54;;;;;;;19.80;14.20;;;9.20;99.90;;;;;;5115317;28;20474;-73
2022/02/03 03:35:34;;;;;;;17.20;13.10;;;9.20;99.90;;;;;;5113863;28;20909;-73
2022/02/03 03:38:03;;;;;;;16.33;12.47;;;9.20;99.90;;;;;;5115050;28;20526;-73
2022/02/03 03:40:32;;;;;;;19.63;12.47;;;9.10;99.90;;;;;;5114702;27;20478;-72
2022/02/03 03:43:05;;;;;;;16.00;12.93;;;9.10;99.90;;;;;;5114814;28;20447;-73
2022/02/03 03:45:34;;;;;;;19.93;12.70;;;9.10;99.90;;;;;;5114450;28;20423;-73
2022/02/03 03:48:05;;;;;;;15.27;12.50;;;9.00;99.90;;;;;;5114400;28;20929;-73
2022/02/03 03:50:35;;;;;;;15.10;11.73;;;9.00;99.90;;;;;;5114287;28;20423;-72
2022/02/03 03:53:10;;;;;;;16.43;11.83;;;9.00;99.90;;;;;;5114551;28;20447;-73
2022/02/03 03:55:45;;;;;;;14.40;10.37;;;9.10;99.90;;;;;;5114541;28;20435;-72
2022/02/03 03:58:37;;;;;;;12.83;10.53;;;9.10;99.90;;;;;;5114485;28;20526;-72
2022/02/03 04:30:27;;;;;;;10.50;6.63;;;9.30;99.90;;;;;;5113764;28;20418;-72
2022/02/03 04:33:31;;;;;;;10.73;7.07;;;9.30;99.90;;;;;;5113592;28;20463;-73
2022/02/03 04:42:14;;;;;;;10.37;8.17;;;9.30;99.90;;;;;;5104489;28;20466;-72
2022/02/03 05:02:51;;;;;;;10.53;7.47;;;9.30;99.90;;;;;;5117865;28;20442;-72
2022/02/03 05:05:42;;;;;;;9.07;7.50;;;9.30;99.90;;;;;;5117860;27;20423;-72
2022/02/03 05:08:32;;;;;;;12.97;8.53;;;9.40;99.90;;;;;;5117750;28;20447;-72
2022/02/03 05:11:45;;;;;;;11.70;7.90;;;9.40;99.90;;;;;;5117388;27;20996;-72
2022/02/03 05:14:53;;;;;;;7.70;6.77;;;9.40;99.90;;;;;;5117687;28;20431;-72
2022/02/03 05:17:54;;;;;;;12.23;8.20;;;9.40;99.90;;;;;;5117138;28;20529;-73
2022/02/03 05:20:55;;;;;;;10.30;8.60;;;9.30;99.90;;;;;;5117686;28;20471;-73
2022/02/03 05:24:00;;;;;;;10.03;8.20;;;9.30;99.90;;;;;;5117235;28;20427;-73
2022/02/03 05:33:21;;;;;;;16.57;9.07;;;9.20;99.90;;;;;;5117397;28;20438;-72
2022/02/03 05:42:25;;;;;;;9.33;8.30;;;9.20;99.90;;;;;;5094189;28;20447;-73
2022/02/03 05:48:24;;;;;;;11.70;10.50;;;9.20;99.90;;;;;;5106190;28;20941;-73
2022/02/03 05:51:11;;;;;;;16.37;10.47;;;9.20;99.90;;;;;;5116722;28;20463;-72
2022/02/03 06:02:36;;;;;;;16.40;11.40;;;9.20;99.90;;;;;;5116671;28;20442;-72
2022/02/03 06:05:09;;;;;;;20.27;11.70;;;9.20;99.90;;;;;;5116607;27;20434;-73
2022/02/03 06:13:10;;;;;;;13.10;10.47;;;9.20;99.90;;;;;;5116891;28;20468;-72
2022/02/03 06:15:47;;;;;;;18.73;10.83;;;9.30;99.90;;;;;;5116176;28;20917;-72
2022/02/03 06:23:59;;;;;;;13.10;10.70;;;9.30;99.90;;;;;;5091384;27;20510;-73
2022/02/03 06:29:14;;;;;;;14.40;10.40;;;9.30;99.90;;;;;;5090647;28;20897;-73
2022/02/03 06:31:43;;;;;;;17.80;11.40;;;9.30;99.90;;;;;;5090754;28;20482;-73
2022/02/03 06:34:11;;;;;;;16.47;11.03;;;9.30;99.90;;;;;;5090929;28;20439;-73
2022/02/03 06:36:39;;;;;;;17.97;10.37;;;9.30;99.90;;;;;;5090649;28;20440;-73
2022/02/03 06:39:15;;;;;;;16.87;11.70;;;9.30;99.90;;;;;;5090970;28;20443;-73
2022/02/03 06:41:42;;;;;;;17.80;11.40;;;9.30;99.90;;;;;;5091097;28;20468;-73
2022/02/03 06:44:11;;;;;;;19.67;11.87;;;9.30;99.90;;;;;;5090879;28;20444;-73
2022/02/03 06:46:40;;;;;;;15.30;10.67;;;9.40;99.90;;;;;;5090698;28;20943;-73
2022/02/03 06:49:14;;;;;;;18.10;11.03;;;9.40;99.90;;;;;;5090531;28;20966;-74
2022/02/03 06:51:49;;;;;;;21.33;11.33;;;9.40;99.90;;;;;;5090766;28;20477;-74
2022/02/03 06:54:24;;;;;;;15.90;10.57;;;9.50;99.90;;;;;;5091164;28;20450;-74
2022/02/03 06:56:55;;;;;;;14.27;10.60;;;9.60;99.90;;;;;;5091250;28;20432;-74
2022/02/03 06:59:29;;;;;;;17.83;11.57;;;9.60;99.90;;;;;;5092223;28;20463;-73
2022/02/03 07:01:56;;;;;;;18.73;13.70;;;9.60;99.90;;;;;;5091871;28;20483;-73
2022/02/03 07:04:26;;;;;;;18.17;12.53;;;9.60;99.90;;;;;;5095009;28;20452;-73
2022/02/03 07:06:53;;;;;;;15.77;12.23;;;9.60;99.90;;;;;;5092371;28;20432;-73
2022/02/03 07:09:21;;;;;;;15.87;12.63;;;9.70;99.90;;;;;;5091522;28;20794;-74
2022/02/03 07:11:48;;;;;;;19.43;12.87;;;9.70;99.90;;;;;;5091049;28;20468;-71
2022/02/03 07:14:14;;;;;;;18.23;13.07;;;9.70;99.90;;;;;;5090893;28;20440;-71
2022/02/03 07:16:48;;;;;;;17.13;12.10;;;9.70;99.90;;;;;;5091049;28;20454;-71
2022/02/03 07:19:16;;;;;;;24.10;12.60;;;9.70;99.90;;;;;;5091354;28;20438;-67
2022/02/03 07:21:42;;;;;;;17.80;13.13;;;9.80;99.90;;;;;;5089818;28;20478;-67
2022/02/03 07:24:09;;;;;;;14.30;12.10;;;9.80;99.90;;;;;;5089636;28;20424;-67
2022/02/03 07:26:37;;;;;;;15.90;11.40;;;9.70;99.90;;;;;;5089945;28;20451;-67
2022/02/03 07:29:05;;;;;;;23.33;11.63;;;9.70;99.90;;;;;;5089769;28;20440;-67
2022/02/03 07:31:32;;;;;;;16.53;12.40;;;9.70;99.90;;;;;;5089753;28;20475;-67
2022/02/03 07:34:05;;;;;;;15.27;11.83;;;9.80;99.90;;;;;;5083344;28;20443;-67
2022/02/03 07:36:32;;;;;;;19.37;12.13;;;9.80;99.90;;;;;;5076389;28;20476;-67
2022/02/03 07:39:00;;;;;;;16.50;12.00;;;9.80;99.90;;;;;;5076205;28;20459;-67
2022/02/03 07:41:27;;;;;;;15.40;10.20;;;9.70;99.90;;;;;;5076040;28;20526;-67
2022/02/03 07:43:55;;;;;;;13.20;10.30;;;9.70;99.90;;;;;;5075980;28;20484;-67
2022/02/03 07:46:22;;;;;;;12.90;8.97;;;9.60;99.90;;;;;;5076018;28;20444;-67
2022/02/03 07:48:51;;;;;;;12.43;9.43;;;9.60;99.90;;;;;;5076007;28;20481;-67
2022/02/03 07:51:18;;;;;;;11.83;9.10;;;9.60;99.90;;;;;;5075896;28;20471;-70
2022/02/03 07:53:45;;;;;;;13.90;10.07;;;9.50;99.90;;;;;;5075911;28;20451;-65
2022/02/03 07:56:12;;;;;;;13.77;9.77;;;9.50;99.90;;;;;;5075873;28;20467;-65
2022/02/03 07:58:38;;;;;;;13.00;9.90;;;9.50;99.90;;;;;;5075905;28;20445;-65
2022/02/03 08:01:07;;;;;;;11.10;9.23;;;9.50;99.90;;;;;;5075710;28;20476;-65
2022/02/03 08:03:33;;;;;;;15.00;9.60;;;9.50;99.90;;;;;;5075760;28;20483;-65
2022/02/03 08:06:04;;;;;;;12.93;9.63;;;9.50;99.90;;;;;;5075635;28;20483;-67
2022/02/03 08:08:35;;;;;;;12.33;10.10;;;9.50;99.90;;;;;;5075675;28;20437;-67
2022/02/03 08:11:06;;;;;;;12.50;9.13;;;9.60;99.90;;;;;;5075218;28;20475;-65
2022/02/03 08:13:35;;;;;;;12.10;8.87;;;9.60;99.90;;;;;;5075286;28;20800;-67
2022/02/03 08:16:08;;;;;;;12.43;8.80;;;9.60;99.90;;;;;;5075411;28;20916;-65
2022/02/03 08:18:37;;;;;;;12.10;9.13;;;9.70;99.90;;;;;;5075480;28;20433;-65
2022/02/03 08:21:06;;;;;;;13.50;8.17;;;9.70;99.90;;;;;;5075379;28;20500;-65
2022/02/03 08:24:01;;;;;;;13.80;10.13;;;9.70;99.90;;;;;;5074921;28;20480;-65
2022/02/03 08:26:46;;;;;;;12.87;10.03;;;9.80;99.90;;;;;;5075204;28;20458;-66
2022/02/03 08:29:36;;;;;;;14.53;10.20;;;9.80;99.90;;;;;;5074931;28;20807;-65
2022/02/03 08:32:08;;;;;;;12.60;9.60;;;9.80;99.90;;;;;;5075100;28;20874;-65
2022/02/03 08:34:45;;;;;;;16.03;11.27;;;9.80;99.90;;;;;;5075183;28;20439;-65
2022/02/03 08:37:13;;;;;;;13.57;10.00;;;9.80;99.90;;;;;;5075092;28;20433;-65
2022/02/03 08:39:51;;;;;;;12.70;9.30;;;9.80;99.90;;;;;;5074971;28;20433;-65
2022/02/03 08:42:18;;;;;;;15.60;10.00;;;9.80;99.90;;;;;;5074816;28;20475;-65
2022/02/03 08:44:45;;;;;;;14.43;9.90;;;9.80;99.90;;;;;;5074663;28;20445;-65
2022/02/03 08:47:12;;;;;;;13.97;9.80;;;9.80;99.90;;;;;;5074212;28;20445;-65
2022/02/03 08:49:44;;;;;;;14.83;11.27;;;9.80;99.90;;;;;;5074538;28;20435;-65
2022/02/03 08:52:17;;;;;;;12.53;8.50;;;9.80;99.90;;;;;;5074660;28;20469;-65
2022/02/03 08:54:52;;;;;;;14.50;9.40;;;9.80;99.90;;;;;;5074710;28;20527;-65
2022/02/03 08:57:31;;;;;;;14.47;11.07;;;9.80;99.90;;;;;;5074679;28;20483;-67
2022/02/03 09:00:17;;;;;;;14.37;9.93;;;9.80;99.90;;;;;;5074688;28;20432;-67
2022/02/03 09:36:32;;;;;;;13.13;10.50;;;9.50;99.90;;;;;;5073698;28;20393;-65
2022/02/03 09:39:09;;;;;;;13.50;11.07;;;9.60;99.90;;;;;;5073864;28;20448;-65
2022/02/03 09:50:30;;;;;;;10.67;9.10;;;9.70;99.90;;;;;;5073806;28;20899;-65
2022/02/03 09:53:18;;;;;;;11.90;8.30;;;9.60;99.90;;;;;;5073420;28;20962;-65
2022/02/03 09:56:05;;;;;;;10.83;7.80;;;9.60;99.90;;;;;;5074567;28;20516;-65
2022/02/03 09:58:39;;;;;;;7.23;6.53;;;9.60;99.90;;;;;;5073097;28;20923;-65
2022/02/03 10:01:09;;;;;;;7.93;7.07;;;9.60;99.90;;;;;;5073616;28;20475;-66
2022/02/03 10:03:40;;;;;;;7.37;6.67;;;9.60;99.90;;;;;;5073384;28;20971;-66
2022/02/03 10:06:15;;;;;;;6.17;5.57;;;9.50;99.90;;;;;;5073670;28;20433;-66
2022/02/03 10:08:48;;;;;;;7.70;6.90;;;9.40;99.90;;;;;;5073605;28;20439;-66
2022/02/03 10:11:19;;;;;;;9.83;6.10;;;9.40;99.90;;;;;;5073528;28;20469;-66
2022/02/03 10:13:48;;;;;;;5.70;5.20;;;9.40;99.90;;;;;;5073515;28;20444;-66
2022/02/03 10:16:15;;;;;;;6.17;5.57;;;9.30;99.90;;;;;;5073463;28;20451;-65
2022/02/03 10:18:42;;;;;;;5.17;4.70;;;9.20;99.90;;;;;;5074313;28;20501;-66
2022/02/03 10:21:13;;;;;;;6.10;5.60;;;9.20;99.90;;;;;;5073434;28;20464;-66
2022/02/03 10:23:53;;;;;;;5.37;4.50;;;9.20;99.90;;;;;;5072979;28;20491;-65
2022/02/03 10:26:21;;;;;;;5.13;4.60;;;9.10;99.90;;;;;;5073350;28;20874;-65
2022/02/03 10:28:53;;;;;;;9.13;4.87;;;9.00;99.90;;;;;;5072994;28;20978;-66
2022/02/03 10:31:25;;;;;;;5.63;4.90;;;9.00;99.90;;;;;;5072931;28;20979;-66
2022/02/03 10:34:02;;;;;;;5.90;5.13;;;8.90;99.90;;;;;;5073133;28;20432;-65
2022/02/03 10:36:46;;;;;;;14.17;5.80;;;8.90;99.90;;;;;;5073343;28;20464;-65
2022/02/03 10:39:50;;;;;;;9.70;5.50;;;8.80;99.90;;;;;;5073520;28;20490;-65
2022/02/03 10:42:28;;;;;;;5.50;4.00;;;8.80;99.90;;;;;;5072780;28;20464;-65
2022/02/03 10:45:10;;;;;;;6.30;4.33;;;8.90;99.90;;;;;;5073223;28;20472;-65
2022/02/03 10:48:11;;;;;;;4.23;3.77;;;8.90;99.90;;;;;;5073137;28;20440;-65
2022/02/03 10:50:55;;;;;;;5.90;4.30;;;9.00;99.90;;;;;;5073031;28;20444;-65
2022/02/03 10:53:43;;;;;;;4.60;4.20;;;9.00;99.90;;;;;;5073030;28;20441;-65
2022/02/03 10:56:22;;;;;;;4.97;4.47;;;9.00;99.90;;;;;;5073023;28;20432;-65
2022/02/03 11:01:49;;;;;;;4.00;3.60;;;9.10;99.90;;;;;;5070710;28;20485;-66
2022/02/03 11:07:12;;;;;;;5.37;3.90;;;9.10;99.90;;;;;;5073192;28;20405;-65
2022/02/03 11:09:58;;;;;;;6.10;3.63;;;9.20;99.90;;;;;;5075000;28;20464;-66
2022/02/03 11:12:28;;;;;;;4.80;4.40;;;9.20;99.90;;;;;;5076646;28;20553;-66
2022/02/03 11:14:58;;;;;;;4.37;3.97;;;9.30;99.90;;;;;;5076275;28;20804;-66
2022/02/03 11:17:27;;;;;;;5.10;4.00;;;9.30;99.90;;;;;;5076802;28;20530;-66
2022/02/03 11:19:57;;;;;;;7.93;4.77;;;9.40;99.90;;;;;;5076505;28;20812;-66
2022/02/03 11:22:30;;;;;;;10.50;4.20;;;9.40;99.90;;;;;;5076348;28;20564;-66
2022/02/03 11:25:13;;;;;;;6.47;4.83;;;9.50;99.90;;;;;;5076258;28;20882;-66
2022/02/03 11:28:02;;;;;;;5.27;4.77;;;9.40;99.90;;;;;;5076344;28;20433;-66
2022/02/03 11:39:48;;;;;;;7.00;4.70;;;9.20;99.90;;;;;;5090695;28;21055;-65
2022/02/03 11:42:39;;;;;;;8.17;4.90;;;9.20;99.90;;;;;;5090457;28;20552;-65
2022/02/03 11:48:23;;;;;;;5.10;4.57;;;9.10;99.90;;;;;;5090810;28;20432;-65
2022/02/03 11:54:21;;;;;;;5.43;4.40;;;8.90;99.90;;;;;;5051569;28;20433;-65
2022/02/03 11:57:25;;;;;;;9.27;4.83;;;8.90;99.90;;;;;;5090652;28;20447;-67
2022/02/03 12:02:53;;;;;;;5.47;4.97;;;8.90;99.90;;;;;;5090524;28;20436;-67
2022/02/03 12:12:19;;;;;;;6.00;5.40;;;8.80;99.90;;;;;;5090842;28;20459;-67
2022/02/03 12:17:49;;;;;;;6.10;5.20;;;8.70;99.90;;;;;;5090129;28;20969;-67
2022/02/03 12:20:34;;;;;;;8.10;4.70;;;8.80;99.90;;;;;;5090235;28;20431;-67
2022/02/03 12:23:10;;;;;;;5.70;5.20;;;8.80;99.90;;;;;;5090201;28;20437;-67
2022/02/03 12:25:52;;;;;;;4.90;4.50;;;8.70;99.90;;;;;;5090965;28;20433;-67
2022/02/03 12:28:32;;;;;;;11.30;5.03;;;8.80;99.90;;;;;;5090074;28;20428;-67
2022/02/03 12:31:11;;;;;;;6.23;5.10;;;8.70;99.90;;;;;;5089925;28;20513;-68
2022/02/03 12:39:12;;;;;;;6.47;5.10;;;8.80;99.90;;;;;;5089875;28;20418;-67
2022/02/03 12:41:44;;;;;;;5.10;4.60;;;8.70;99.90;;;;;;5089771;28;20521;-67
2022/02/03 12:44:19;;;;;;;5.30;4.80;;;8.80;99.90;;;;;;5080949;28;20439;-67
2022/02/03 12:46:46;;;;;;;7.97;5.20;;;8.80;99.90;;;;;;5076161;28;20432;-67
2022/02/03 12:49:13;;;;;;;6.80;4.87;;;8.80;99.90;;;;;;5076182;28;20452;-67
2022/02/03 12:51:40;;;;;;;11.00;5.10;;;8.80;99.90;;;;;;5075968;28;20473;-67
2022/02/03 12:54:11;;;;;;;7.33;4.40;;;8.90;99.90;;;;;;5076073;28;20449;-67
2022/02/03 12:56:40;;;;;;;7.07;5.30;;;8.80;99.90;;;;;;5076051;28;20451;-67
2022/02/03 12:59:10;;;;;;;5.87;4.90;;;8.80;99.90;;;;;;5075984;28;20452;-67
2022/02/03 13:01:40;;;;;;;6.00;5.27;;;8.80;99.90;;;;;;5075895;28;20465;-67
2022/02/03 13:04:12;;;;;;;8.77;5.30;;;8.70;99.90;;;;;;5075526;28;20448;-67
2022/02/03 13:06:43;;;;;;;7.53;4.70;;;8.70;99.90;;;;;;5075813;28;20435;-67
2022/02/03 13:09:11;;;;;;;7.17;4.53;;;8.70;99.90;;;;;;5075684;28;20473;-67
2022/02/03 13:11:41;;;;;;;5.47;4.87;;;8.80;99.90;;;;;;5075501;28;20514;-67
2022/02/03 13:14:22;;;;;;;6.00;5.10;;;8.90;99.90;;;;;;5075697;28;20440;-67
2022/02/03 13:16:55;;;;;;;4.83;4.40;;;8.90;99.90;;;;;;5075591;28;20517;-67
2022/02/03 13:19:32;;;;;;;8.40;5.37;;;8.90;99.90;;;;;;5075638;28;20491;-67
2022/02/03 13:22:13;;;;;;;5.30;4.77;;;8.90;99.90;;;;;;5075161;28;20469;-67
2022/02/03 13:25:01;;;;;;;8.33;4.80;;;8.90;99.90;;;;;;5075513;28;20436;-67
2022/02/03 13:27:35;;;;;;;5.30;4.77;;;8.90;99.90;;;;;;5075347;28;20482;-67
2022/02/03 13:30:08;;;;;;;5.97;5.13;;;8.80;99.90;;;;;;5075340;28;20483;-67
2022/02/03 13:32:39;;;;;;;9.70;5.10;;;8.80;99.90;;;;;;5074998;28;20496;-67
2022/02/03 13:35:23;;;;;;;5.20;4.60;;;8.80;99.90;;;;;;5075324;28;20445;-67
2022/02/03 13:37:52;;;;;;;8.13;6.17;;;8.70;99.90;;;;;;5075261;28;20433;-67
2022/02/03 13:40:20;;;;;;;7.30;5.53;;;8.70;99.90;;;;;;5075778;28;20443;-67
2022/02/03 13:42:49;;;;;;;9.70;5.67;;;8.60;99.90;;;;;;5075060;28;20469;-67
2022/02/03 13:45:21;;;;;;;7.03;5.47;;;8.50;99.90;;;;;;5075113;28;20522;-67
2022/02/03 13:47:50;;;;;;;8.33;5.83;;;8.50;99.90;;;;;;5075837;28;20429;-67
2022/02/03 13:50:23;;;;;;;14.80;6.57;;;8.40;99.90;;;;;;5074681;28;20454;-67
2022/02/03 13:52:55;;;;;;;7.03;5.93;;;8.40;99.90;;;;;;5074797;28;20481;-67
2022/02/03 14:15:14;;;;;;;9.70;6.87;;;8.30;99.90;;;;;;5074909;28;20440;-68
2022/02/03 14:28:39;;;;;;;7.50;6.70;;;8.50;99.90;;;;;;5074261;28;20551;-72
2022/02/03 14:31:07;;;;;;;9.80;5.63;;;8.60;99.90;;;;;;5074056;28;20529;-72
2022/02/03 14:33:38;;;;;;;5.70;5.10;;;8.70;99.90;;;;;;5073664;28;20488;-72
2022/02/03 14:36:09;;;;;;;9.17;5.20;;;8.80;99.90;;;;;;5074158;28;20451;-72
2022/02/03 14:38:43;;;;;;;6.60;5.87;;;8.80;99.90;;;;;;5074004;28;20444;-72
2022/02/03 14:41:17;;;;;;;10.20;5.63;;;8.80;99.90;;;;;;5073593;28;20468;-72
2022/02/03 14:43:44;;;;;;;7.63;5.60;;;8.80;99.90;;;;;;5073576;28;20436;-76
2022/02/03 14:46:14;;;;;;;7.97;5.93;;;8.90;99.90;;;;;;5073828;28;20448;-76
2022/02/03 14:48:44;;;;;;;6.90;5.40;;;9.00;99.90;;;;;;5073634;28;20927;-75
2022/02/03 14:51:13;;;;;;;7.17;5.03;;;9.20;99.90;;;;;;5073700;28;20479;-76
2022/02/03 14:53:52;;;;;;;8.60;6.10;;;9.30;99.90;;;;;;5073786;28;20473;-75
2022/02/03 14:59:04;;;;;;;9.93;6.10;;;9.50;99.90;;;;;;5073829;28;20396;-76
2022/02/03 15:01:32;;;;;;;6.50;5.33;;;9.60;99.90;;;;;;5073326;28;21004;-76
2022/02/03 15:04:02;;;;;;;9.43;6.30;;;9.60;99.90;;;;;;5073730;28;20440;-76
2022/02/03 15:06:36;;;;;;;8.93;6.33;;;9.70;99.90;;;;;;5073459;28;20473;-76
2022/02/03 15:09:17;;;;;;;12.87;7.10;;;9.70;99.90;;;;;;5073428;28;20916;-76
2022/02/03 15:12:01;;;;;;;10.77;6.23;;;9.60;99.90;;;;;;5073625;28;20468;-75
2022/02/03 15:14:28;;;;;;;7.00;6.13;;;9.50;99.90;;;;;;5073498;28;20516;-73
2022/02/03 15:16:55;;;;;;;10.80;6.37;;;9.40;99.90;;;;;;5073531;28;20452;-73
2022/02/03 15:19:23;;;;;;;9.37;7.40;;;9.50;99.90;;;;;;5073215;28;20958;-72
2022/02/03 15:21:49;;;;;;;12.50;7.03;;;9.50;99.90;;;;;;5073438;28;20535;-72
2022/02/03 15:24:16;;;;;;;8.37;6.97;;;9.50;99.90;;;;;;5073421;28;20443;-72
2022/02/03 15:26:43;;;;;;;8.20;6.53;;;9.40;99.90;;;;;;5073448;28;20455;-72
2022/02/03 15:29:11;;;;;;;8.00;6.70;;;9.40;99.90;;;;;;5073477;28;20814;-73
2022/02/03 15:31:39;;;;;;;8.97;7.00;;;9.40;99.90;;;;;;5073115;28;20572;-73
2022/02/03 15:34:09;;;;;;;12.97;7.07;;;9.40;99.90;;;;;;5073802;28;20534;-72
2022/02/03 15:36:39;;;;;;;11.87;6.60;;;9.30;99.90;;;;;;5073638;28;20455;-72
2022/02/03 15:39:10;;;;;;;10.80;8.07;;;9.30;99.90;;;;;;5072954;28;20955;-72
2022/02/03 15:41:38;;;;;;;9.03;6.97;;;9.30;99.90;;;;;;5073239;28;20896;-73
2022/02/03 15:44:05;;;;;;;9.30;6.93;;;9.20;99.90;;;;;;5073385;28;20452;-75
2022/02/03 15:46:39;;;;;;;10.50;7.50;;;9.20;99.90;;;;;;5073310;28;20440;-73
2022/02/03 15:49:15;;;;;;;9.70;6.97;;;9.20;99.90;;;;;;5072940;28;20468;-73
2022/02/03 15:57:56;;;;;;;10.30;7.00;;;9.20;99.90;;;;;;5037106;28;20918;-73
2022/02/03 16:03:23;;;;;;;9.87;8.17;;;9.10;99.90;;;;;;5030888;28;20461;-73
2022/02/03 16:17:00;;;;;;;11.53;8.17;;;8.90;99.90;;;;;;5051969;28;20432;-70
2022/02/03 16:19:29;;;;;;;9.93;8.93;;;8.80;99.90;;;;;;5075168;28;20523;-71
2022/02/03 16:22:00;;;;;;;10.23;8.30;;;8.80;99.90;;;;;;5076699;28;20510;-74
2022/02/03 16:24:40;;;;;;;8.63;7.50;;;8.80;99.90;;;;;;5076853;28;20515;-76
2022/02/03 16:52:10;;;;;;;14.00;8.80;;;8.60;99.90;;;;;;5063515;28;20498;-74
2022/02/03 16:54:37;;;;;;;10.00;9.00;;;8.60;99.90;;;;;;5077004;28;20472;-76
2022/02/03 16:57:12;;;;;;;11.17;8.97;;;8.60;99.90;;;;;;5077161;28;20452;-74
2022/02/03 16:59:46;;;;;;;12.53;9.70;;;8.60;99.90;;;;;;5076467;28;20437;-71
2022/02/03 17:02:15;;;;;;;15.30;8.77;;;8.60;99.90;;;;;;5076549;28;20563;-75
2022/02/03 17:04:42;;;;;;;10.27;8.40;;;8.60;99.90;;;;;;5076436;28;20536;-73
2022/02/03 17:07:09;;;;;;;14.07;9.87;;;8.60;99.90;;;;;;5076727;28;20817;-72
2022/02/03 17:09:38;;;;;;;13.43;9.03;;;8.60;99.90;;;;;;5076184;28;20448;-72
2022/02/03 17:12:07;;;;;;;11.77;9.23;;;8.70;99.90;;;;;;5075899;28;20461;-72
2022/02/03 17:14:34;;;;;;;16.77;8.83;;;8.70;99.90;;;;;;5075834;28;20855;-72
2022/02/03 17:17:00;;;;;;;17.07;10.77;;;8.70;99.90;;;;;;5076127;28;20453;-72
2022/02/03 17:19:28;;;;;;;10.50;9.07;;;8.70;99.90;;;;;;5075910;28;20467;-72
2022/02/03 17:21:54;;;;;;;14.83;10.60;;;8.70;99.90;;;;;;5075831;28;20838;-72
2022/02/03 17:24:21;;;;;;;11.70;9.60;;;8.70;99.90;;;;;;5075558;28;20440;-70
2022/02/03 17:26:51;;;;;;;13.80;10.20;;;8.70;99.90;;;;;;5075537;28;20816;-74
2022/02/03 17:29:28;;;;;;;12.33;9.63;;;8.70;99.90;;;;;;5075386;28;20532;-74
2022/02/03 17:32:02;;;;;;;16.87;10.50;;;8.60;99.90;;;;;;5075237;28;20488;-75
2022/02/03 18:10:12;;;;;;;14.57;13.20;;;9.00;99.90;;;;;;5074765;28;20515;-72
2022/02/03 18:29:55;;;;;;;13.10;11.70;;;9.00;99.90;;;;;;5073770;28;20977;-72
2022/02/03 18:32:44;;;;;;;16.03;12.50;;;9.00;99.90;;;;;;5074170;28;20481;-72
2022/02/03 18:35:29;;;;;;;17.17;13.00;;;8.90;99.90;;;;;;5073951;28;20465;-72
2022/02/03 18:52:04;;;;;;;15.13;13.07;;;8.70;99.90;;;;;;5073659;28;20495;-76
2022/02/03 18:54:43;;;;;;;20.80;12.63;;;8.60;99.90;;;;;;5074326;28;20472;-76
2022/02/03 18:57:24;;;;;;;15.17;12.67;;;8.60;99.90;;;;;;5073608;28;20428;-77
2022/02/03 20:01:17;;;;;;;22.63;16.53;;;8.40;99.90;;;;;;5079705;28;20902;-80
2022/02/03 20:04:05;;;;;;;20.27;15.83;;;8.40;99.90;;;;;;5084264;28;20445;-79
2022/02/03 20:06:43;;;;;;;20.60;15.83;;;8.40;99.90;;;;;;5081537;28;20435;-79
2022/02/03 20:09:18;;;;;;;20.30;16.53;;;8.40;99.90;;;;;;5080773;28;20416;-79
2022/02/03 20:11:46;;;;;;;21.87;15.80;;;8.50;99.90;;;;;;5080301;28;20517;-79
2022/02/03 20:14:14;;;;;;;23.00;17.50;;;8.50;99.90;;;;;;5079589;28;20484;-79
2022/02/03 20:16:42;;;;;;;21.60;16.90;;;8.50;99.90;;;;;;5080716;28;20455;-79
2022/02/03 20:19:09;;;;;;;18.67;16.00;;;8.60;99.90;;;;;;5080060;28;20452;-80
2022/02/03 20:21:38;;;;;;;20.10;17.30;;;8.60;99.90;;;;;;5080111;28;20834;-80
2022/02/03 20:24:06;;;;;;;22.80;16.20;;;8.60;99.90;;;;;;5080255;28;20465;-80
2022/02/03 20:26:34;;;;;;;25.80;18.30;;;8.60;99.90;;;;;;5079761;28;20471;-80
2022/02/03 20:29:01;;;;;;;20.20;15.87;;;8.60;99.90;;;;;;5079814;28;20449;-80
2022/02/03 20:31:29;;;;;;;20.27;16.50;;;8.60;99.90;;;;;;5079105;28;20471;-79
2022/02/03 20:33:56;;;;;;;21.73;17.97;;;8.70;99.90;;;;;;5079112;28;20848;-79
2022/02/03 20:36:24;;;;;;;18.60;16.60;;;8.60;99.90;;;;;;5078921;28;20448;-79
2022/02/03 20:38:51;;;;;;;18.07;15.93;;;8.70;99.90;;;;;;5078847;28;20952;-80
2022/02/03 20:41:18;;;;;;;22.20;16.20;;;8.70;99.90;;;;;;5078866;28;20474;-80
2022/02/03 20:43:45;;;;;;;19.60;16.67;;;8.70;99.90;;;;;;5078158;28;20444;-78
2022/02/03 20:46:11;;;;;;;19.37;14.90;;;8.60;99.90;;;;;;5076881;28;20441;-78
2022/02/03 20:48:45;;;;;;;21.30;16.27;;;8.60;99.90;;;;;;5077877;28;20456;-78
2022/02/03 20:51:13;;;;;;;23.03;17.30;;;8.60;99.90;;;;;;5077128;28;20467;-78
2022/02/03 20:53:40;;;;;;;21.17;17.83;;;8.50;99.90;;;;;;5077091;28;20480;-78
2022/02/03 20:56:06;;;;;;;25.10;17.77;;;8.60;99.90;;;;;;5076597;28;20946;-78
2022/02/03 20:58:34;;;;;;;24.70;17.00;;;8.60;99.90;;;;;;5077254;28;20444;-79
2022/02/03 21:01:08;;;;;;;26.17;17.03;;;8.60;99.90;;;;;;5077975;28;21017;-79
2022/02/03 21:03:39;;;;;;;21.50;17.23;;;8.60;99.90;;;;;;5078221;28;20927;-79
2022/02/03 21:06:09;;;;;;;22.93;18.23;;;8.60;99.90;;;;;;5078419;28;20845;-79
2022/02/03 21:08:38;;;;;;;26.27;17.40;;;8.60;99.90;;;;;;5077091;28;20452;-75
2022/02/03 21:11:06;;;;;;;23.80;18.70;;;8.60;99.90;;;;;;5076986;28;20526;-79
2022/02/03 21:13:33;;;;;;;26.07;18.30;;;8.60;99.90;;;;;;5076926;28;20452;-75
2022/02/03 21:16:01;;;;;;;25.90;16.83;;;8.60;99.90;;;;;;5075587;28;20444;-75